Time;durP1;ratioP1;P1;durP2;ratioP2;P2;SDS_P1;SDS_P2;PMS_P1;PMS_P2;Temp;Humidity;BMP_temperature;BMP_pressure;BME280_temperature;BME280_humidity;BME280_pressure;Samples;Min_cycle;Max_cycle;Signal;HPM_P1;HPM_P2
2021/05/17 00:00:36;;;;;;;10.07;6.25;;;;;;;;;;5052120;28;20045;-57
2021/05/17 00:03:12;;;;;;;9.15;5.60;;;;;;;;;;5051810;28;20070;-58
2021/05/17 00:05:38;;;;;;;11.50;6.20;;;;;;;;;;5052667;28;20069;-58
2021/05/17 00:08:05;;;;;;;11.30;6.32;;;;;;;;;;5051784;28;20399;-58
2021/05/17 00:10:32;;;;;;;8.90;6.15;;;;;;;;;;5051741;28;20041;-58
2021/05/17 00:12:59;;;;;;;12.00;6.47;;;;;;;;;;5051588;28;20052;-58
2021/05/17 00:15:25;;;;;;;8.27;5.68;;;;;;;;;;5051654;28;20052;-57
2021/05/17 00:17:52;;;;;;;9.18;5.90;;;;;;;;;;5052287;28;20140;-58
2021/05/17 00:20:19;;;;;;;9.50;6.25;;;;;;;;;;5051389;28;20522;-58
2021/05/17 00:22:45;;;;;;;9.50;6.10;;;;;;;;;;5051570;28;20045;-58
2021/05/17 00:25:12;;;;;;;10.68;6.68;;;;;;;;;;5050610;28;20052;-58
2021/05/17 00:27:39;;;;;;;10.27;5.88;;;;;;;;;;5036799;28;20067;-58
2021/05/17 00:30:08;;;;;;;9.43;6.07;;;;;;;;;;5051739;28;20041;-58
2021/05/17 00:32:34;;;;;;;11.63;7.43;;;;;;;;;;5050978;28;20056;-57
2021/05/17 00:35:01;;;;;;;10.07;6.07;;;;;;;;;;5050229;28;20053;-56
2021/05/17 00:37:27;;;;;;;14.80;7.40;;;;;;;;;;5051493;28;20514;-57
2021/05/17 00:39:54;;;;;;;8.82;5.95;;;;;;;;;;5051439;28;20116;-58
2021/05/17 00:42:21;;;;;;;11.98;6.68;;;;;;;;;;5051313;28;20069;-58
2021/05/17 00:44:47;;;;;;;12.63;6.85;;;;;;;;;;5052248;28;20503;-58
2021/05/17 00:47:15;;;;;;;10.70;6.57;;;;;;;;;;5049950;28;20110;-57
2021/05/17 00:49:42;;;;;;;10.40;6.63;;;;;;;;;;5050134;28;20495;-57
2021/05/17 00:52:10;;;;;;;10.75;6.88;;;;;;;;;;5051215;28;20041;-58
2021/05/17 00:54:37;;;;;;;11.73;6.70;;;;;;;;;;5051379;28;20048;-58
2021/05/17 00:57:05;;;;;;;10.70;7.07;;;;;;;;;;5087984;28;20102;-58
2021/05/17 00:59:33;;;;;;;10.85;6.50;;;;;;;;;;5043600;28;20460;-57
2021/05/17 01:01:59;;;;;;;12.95;7.35;;;;;;;;;;5051192;28;20098;-58
2021/05/17 01:04:44;;;;;;;;;;;;;;;;;;5053326;28;20053;-57
2021/05/17 01:07:12;;;;;;;12.02;6.90;;;;;;;;;;5052879;28;19924;-58
2021/05/17 01:09:40;;;;;;;9.40;6.55;;;;;;;;;;5053885;28;20044;-58
2021/05/17 01:12:08;;;;;;;11.68;6.93;;;;;;;;;;5054005;28;20096;-57
2021/05/17 01:14:35;;;;;;;9.57;6.70;;;;;;;;;;5068870;28;20059;-58
2021/05/17 01:17:02;;;;;;;15.00;8.48;;;;;;;;;;5086049;28;20041;-58
2021/05/17 01:19:41;;;;;;;13.82;7.47;;;;;;;;;;5052547;28;20041;-57
2021/05/17 01:22:21;;;;;;;15.80;6.93;;;;;;;;;;5052405;28;20079;-58
2021/05/17 01:24:49;;;;;;;12.75;7.10;;;;;;;;;;5053793;28;20041;-58
2021/05/17 01:27:17;;;;;;;11.38;7.30;;;;;;;;;;5086235;28;20415;-57
2021/05/17 01:29:44;;;;;;;16.50;8.15;;;;;;;;;;5054483;28;20049;-58
2021/05/17 01:32:11;;;;;;;14.73;8.68;;;;;;;;;;5053978;28;20037;-58
2021/05/17 01:34:37;;;;;;;15.40;8.32;;;;;;;;;;5054060;28;20048;-58
2021/05/17 01:37:07;;;;;;;14.45;7.72;;;;;;;;;;5053009;28;20126;-58
2021/05/17 01:39:36;;;;;;;13.90;9.23;;;;;;;;;;5053095;28;20095;-57
2021/05/17 01:42:05;;;;;;;13.80;8.65;;;;;;;;;;5053504;28;20056;-58
2021/05/17 01:44:35;;;;;;;13.57;7.85;;;;;;;;;;5067270;28;20072;-58
2021/05/17 01:47:02;;;;;;;13.43;8.70;;;;;;;;;;5052645;28;20487;-57
2021/05/17 01:49:31;;;;;;;15.77;8.32;;;;;;;;;;5052400;28;20037;-57
2021/05/17 01:51:58;;;;;;;17.10;8.88;;;;;;;;;;5052764;28;20049;-58
2021/05/17 01:54:30;;;;;;;15.93;8.95;;;;;;;;;;5054113;28;20403;-58
2021/05/17 01:56:57;;;;;;;19.25;9.52;;;;;;;;;;5055008;28;20056;-58
2021/05/17 01:59:33;;;;;;;14.45;8.55;;;;;;;;;;5052869;28;20049;-57
2021/05/17 02:02:00;;;;;;;13.93;8.73;;;;;;;;;;5052600;28;20494;-57
2021/05/17 02:04:29;;;;;;;17.50;9.82;;;;;;;;;;5052778;28;20045;-57
2021/05/17 02:06:57;;;;;;;15.60;9.93;;;;;;;;;;5053654;28;20040;-58
2021/05/17 02:09:26;;;;;;;16.45;10.23;;;;;;;;;;5053967;28;20120;-57
2021/05/17 02:11:53;;;;;;;22.52;10.88;;;;;;;;;;5054300;28;20076;-57
2021/05/17 02:14:58;;;;;;;16.50;9.55;;;;;;;;;;5041813;28;20053;-57
2021/05/17 02:17:29;;;;;;;18.20;10.80;;;;;;;;;;5052844;28;20053;-58
2021/05/17 02:19:55;;;;;;;19.40;9.95;;;;;;;;;;5053519;28;20123;-57
2021/05/17 02:22:22;;;;;;;14.50;9.13;;;;;;;;;;5048056;28;20072;-57
2021/05/17 02:25:00;;;;;;;21.55;9.27;;;;;;;;;;5085810;28;20045;-57
2021/05/17 02:27:28;;;;;;;14.80;9.68;;;;;;;;;;5052066;28;20044;-57
2021/05/17 02:29:54;;;;;;;20.05;9.88;;;;;;;;;;5038008;28;20052;-57
2021/05/17 02:32:22;;;;;;;15.82;10.10;;;;;;;;;;5052415;28;20041;-57
2021/05/17 02:34:50;;;;;;;20.42;9.65;;;;;;;;;;5053381;28;20060;-57
2021/05/17 02:37:19;;;;;;;17.20;10.05;;;;;;;;;;5052188;28;20128;-57
2021/05/17 02:39:47;;;;;;;16.40;9.23;;;;;;;;;;5049019;28;20052;-57
2021/05/17 02:42:17;;;;;;;17.77;9.30;;;;;;;;;;5040885;28;20438;-57
2021/05/17 02:44:43;;;;;;;16.55;9.45;;;;;;;;;;5070768;28;20045;-57
2021/05/17 02:47:12;;;;;;;16.13;10.02;;;;;;;;;;5049682;28;20115;-57
2021/05/17 02:49:39;;;;;;;15.95;9.93;;;;;;;;;;5047225;28;20483;-57
2021/05/17 02:52:05;;;;;;;18.95;10.45;;;;;;;;;;5041579;28;20037;-57
2021/05/17 02:54:33;;;;;;;22.02;10.35;;;;;;;;;;5036042;28;20539;-57
2021/05/17 02:57:08;;;;;;;16.25;9.15;;;;;;;;;;5049383;28;20494;-57
2021/05/17 02:59:37;;;;;;;19.10;9.98;;;;;;;;;;5039065;28;20068;-58
2021/05/17 03:02:08;;;;;;;19.40;9.52;;;;;;;;;;5044246;28;20130;-57
2021/05/17 03:04:40;;;;;;;18.45;10.52;;;;;;;;;;5085090;28;20136;-57
2021/05/17 03:07:10;;;;;;;21.27;10.45;;;;;;;;;;5052812;28;20102;-57
2021/05/17 03:09:37;;;;;;;19.83;9.50;;;;;;;;;;5052940;28;20123;-57
2021/05/17 03:12:07;;;;;;;17.83;10.07;;;;;;;;;;5051282;28;20087;-58
2021/05/17 03:14:36;;;;;;;17.75;10.38;;;;;;;;;;5038576;28;20060;-57
2021/05/17 03:17:08;;;;;;;16.02;9.73;;;;;;;;;;5042993;28;20407;-58
2021/05/17 03:19:36;;;;;;;18.67;10.55;;;;;;;;;;5084067;28;20515;-57
2021/05/17 03:22:04;;;;;;;17.27;10.40;;;;;;;;;;5051923;28;20491;-57
2021/05/17 03:24:38;;;;;;;20.25;11.27;;;;;;;;;;5035946;28;20044;-57
2021/05/17 03:27:13;;;;;;;23.90;13.30;;;;;;;;;;5048642;28;20045;-57
2021/05/17 03:29:40;;;;;;;18.60;11.45;;;;;;;;;;5051062;28;20052;-57
2021/05/17 03:32:06;;;;;;;18.73;10.73;;;;;;;;;;5042442;28;20041;-56
2021/05/17 03:34:33;;;;;;;20.55;11.07;;;;;;;;;;5044283;28;20055;-57
2021/05/17 03:36:59;;;;;;;21.88;11.68;;;;;;;;;;5052001;28;20041;-57
2021/05/17 03:39:26;;;;;;;20.35;10.68;;;;;;;;;;5051886;28;20056;-57
2021/05/17 03:41:52;;;;;;;22.85;12.85;;;;;;;;;;5047479;28;20506;-57
2021/05/17 03:44:18;;;;;;;22.95;12.00;;;;;;;;;;5051924;28;20045;-57
2021/05/17 03:46:45;;;;;;;20.77;11.98;;;;;;;;;;5052084;28;20495;-57
2021/05/17 03:49:11;;;;;;;22.50;12.50;;;;;;;;;;5051789;28;20099;-57
2021/05/17 03:51:37;;;;;;;25.27;12.52;;;;;;;;;;5050826;28;20826;-57
2021/05/17 03:54:04;;;;;;;21.13;12.13;;;;;;;;;;5052258;28;20533;-57
2021/05/17 03:56:30;;;;;;;23.40;11.82;;;;;;;;;;5040273;28;20104;-58
2021/05/17 03:58:56;;;;;;;20.50;12.27;;;;;;;;;;5047545;28;20120;-58
2021/05/17 04:01:23;;;;;;;20.25;11.82;;;;;;;;;;5050689;28;20045;-57
2021/05/17 04:03:51;;;;;;;21.35;11.85;;;;;;;;;;5051844;28;20486;-58
2021/05/17 04:14:26;;;;;;;23.30;12.75;;;;;;;;;;5051632;28;20134;-58
2021/05/17 04:16:52;;;;;;;21.58;11.82;;;;;;;;;;5051642;28;20049;-57
2021/05/17 04:19:20;;;;;;;25.23;12.43;;;;;;;;;;5049809;28;20061;-57
2021/05/17 04:21:46;;;;;;;24.83;11.20;;;;;;;;;;5036553;28;20053;-57
2021/05/17 04:24:12;;;;;;;20.70;11.45;;;;;;;;;;5051475;28;20040;-58
2021/05/17 04:26:39;;;;;;;20.27;11.48;;;;;;;;;;5051953;28;20044;-58
2021/05/17 04:29:05;;;;;;;24.33;12.10;;;;;;;;;;5046616;28;20052;-58
2021/05/17 04:31:32;;;;;;;22.05;12.00;;;;;;;;;;5049701;28;20541;-58
2021/05/17 04:33:58;;;;;;;21.02;12.02;;;;;;;;;;5043457;28;20037;-58
2021/05/17 04:36:27;;;;;;;22.30;11.65;;;;;;;;;;5037836;28;20072;-58
2021/05/17 04:38:54;;;;;;;20.13;10.65;;;;;;;;;;5049637;28;20060;-58
2021/05/17 04:41:20;;;;;;;22.33;12.32;;;;;;;;;;5054114;28;20049;-58
2021/05/17 04:43:47;;;;;;;19.20;11.45;;;;;;;;;;5053046;28;20052;-58
2021/05/17 04:46:13;;;;;;;19.80;11.00;;;;;;;;;;5053898;28;20052;-58
2021/05/17 04:48:48;;;;;;;19.50;11.68;;;;;;;;;;5054267;28;20451;-58
2021/05/17 04:51:16;;;;;;;21.67;10.85;;;;;;;;;;5053182;28;20069;-58
2021/05/17 04:53:42;;;;;;;16.98;10.80;;;;;;;;;;5053136;28;20151;-58
2021/05/17 04:56:09;;;;;;;20.55;10.73;;;;;;;;;;5050623;28;20037;-59
2021/05/17 04:58:35;;;;;;;18.55;11.25;;;;;;;;;;5049587;28;20421;-59
2021/05/17 05:01:02;;;;;;;22.35;11.00;;;;;;;;;;5053915;28;20068;-58
2021/05/17 05:03:29;;;;;;;17.83;10.57;;;;;;;;;;5054995;28;20041;-59
2021/05/17 05:05:57;;;;;;;16.25;10.25;;;;;;;;;;5054828;28;20580;-59
2021/05/17 05:08:23;;;;;;;14.07;9.20;;;;;;;;;;5052097;28;20055;-58
2021/05/17 05:10:49;;;;;;;15.23;9.10;;;;;;;;;;5044099;28;20046;-58
2021/05/17 05:13:16;;;;;;;12.15;8.52;;;;;;;;;;5051788;28;20068;-59
2021/05/17 05:15:42;;;;;;;12.60;8.73;;;;;;;;;;5052179;28;20056;-58
2021/05/17 05:18:09;;;;;;;12.65;7.47;;;;;;;;;;5055016;28;20049;-58
2021/05/17 05:20:35;;;;;;;10.88;7.32;;;;;;;;;;5070003;28;20057;-58
2021/05/17 05:23:03;;;;;;;10.75;7.78;;;;;;;;;;5049414;28;20403;-58
2021/05/17 05:26:04;;;;;;;11.13;8.02;;;;;;;;;;5050060;28;20045;-58
2021/05/17 05:28:35;;;;;;;11.65;8.35;;;;;;;;;;5042292;28;20059;-58
2021/05/17 05:31:08;;;;;;;12.90;10.32;;;;;;;;;;5050954;28;20132;-58
2021/05/17 05:33:35;;;;;;;11.85;8.52;;;;;;;;;;5050002;28;20128;-58
2021/05/17 05:36:02;;;;;;;19.58;9.02;;;;;;;;;;5054919;28;20068;-58
2021/05/17 05:38:28;;;;;;;15.40;10.30;;;;;;;;;;5050637;28;20083;-59
2021/05/17 05:40:54;;;;;;;16.48;11.48;;;;;;;;;;5049771;28;20055;-58
2021/05/17 05:43:21;;;;;;;14.95;10.18;;;;;;;;;;5053460;28;20080;-59
2021/05/17 05:45:50;;;;;;;13.57;8.07;;;;;;;;;;5050395;28;20503;-58
2021/05/17 05:48:16;;;;;;;14.48;7.60;;;;;;;;;;5052889;28;20491;-59
2021/05/17 05:50:45;;;;;;;11.77;7.15;;;;;;;;;;5051838;28;20484;-59
2021/05/17 05:53:12;;;;;;;9.77;6.53;;;;;;;;;;5049915;28;20491;-59
2021/05/17 05:55:38;;;;;;;11.43;5.72;;;;;;;;;;5050340;28;20068;-59
2021/05/17 05:58:05;;;;;;;9.35;5.70;;;;;;;;;;5042122;28;20053;-58
2021/05/17 06:00:31;;;;;;;7.97;5.57;;;;;;;;;;5048779;28;20041;-59
2021/05/17 06:02:58;;;;;;;10.13;5.85;;;;;;;;;;5051621;28;20640;-59
2021/05/17 06:05:24;;;;;;;9.70;5.82;;;;;;;;;;4995224;28;20079;-59
2021/05/17 06:07:51;;;;;;;10.95;6.10;;;;;;;;;;5039401;28;20041;-59
2021/05/17 06:10:18;;;;;;;7.60;5.25;;;;;;;;;;5045692;28;20504;-59
2021/05/17 06:12:48;;;;;;;8.38;5.82;;;;;;;;;;5047090;28;20434;-59
2021/05/17 06:15:15;;;;;;;12.82;5.72;;;;;;;;;;5038887;28;20049;-59
2021/05/17 06:17:42;;;;;;;9.43;5.72;;;;;;;;;;5045644;28;20090;-58
2021/05/17 06:20:09;;;;;;;8.68;5.25;;;;;;;;;;5045389;28;20046;-58
2021/05/17 06:22:37;;;;;;;6.57;4.43;;;;;;;;;;5038492;28;20079;-58
2021/05/17 06:25:10;;;;;;;7.30;4.65;;;;;;;;;;5034972;28;20080;-58
2021/05/17 06:27:37;;;;;;;7.07;4.30;;;;;;;;;;5034068;28;20044;-59
2021/05/17 06:30:05;;;;;;;7.22;4.53;;;;;;;;;;5040084;28;20117;-59
2021/05/17 06:32:35;;;;;;;11.15;5.25;;;;;;;;;;5049202;28;20080;-58
2021/05/17 06:35:01;;;;;;;8.13;4.93;;;;;;;;;;5047040;28;20433;-58
2021/05/17 06:37:28;;;;;;;8.20;5.50;;;;;;;;;;5045096;28;20530;-59
2021/05/17 06:39:54;;;;;;;8.65;4.85;;;;;;;;;;5048007;28;20084;-59
2021/05/17 06:42:21;;;;;;;8.32;5.43;;;;;;;;;;5049666;28;20510;-59
2021/05/17 06:44:47;;;;;;;8.43;5.75;;;;;;;;;;5050031;28;20159;-59
2021/05/17 06:47:14;;;;;;;7.47;5.50;;;;;;;;;;5042569;28;20759;-59
2021/05/17 06:49:40;;;;;;;7.65;5.18;;;;;;;;;;5046043;28;20045;-59
2021/05/17 06:52:09;;;;;;;7.25;5.05;;;;;;;;;;5051488;28;20045;-59
2021/05/17 06:54:36;;;;;;;20.60;5.93;;;;;;;;;;5051435;28;20048;-59
2021/05/17 06:59:41;;;;;;;9.38;5.22;;;;;;;;;;5040739;28;20045;-59
2021/05/17 07:02:17;;;;;;;8.23;4.95;;;;;;;;;;5049657;28;20056;-59
2021/05/17 07:04:45;;;;;;;7.90;4.00;;;;;;;;;;5052354;28;20037;-59
2021/05/17 07:07:12;;;;;;;8.88;4.60;;;;;;;;;;5052317;28;20099;-59
2021/05/17 07:12:23;;;;;;;6.55;3.72;;;;;;;;;;5052284;28;20645;-59
2021/05/17 07:14:49;;;;;;;5.43;3.70;;;;;;;;;;5053107;28;20123;-59
2021/05/17 07:17:16;;;;;;;5.82;3.35;;;;;;;;;;5051741;28;20044;-58
2021/05/17 07:19:44;;;;;;;3.90;2.72;;;;;;;;;;5052025;28;20051;-59
2021/05/17 07:24:55;;;;;;;3.95;2.50;;;;;;;;;;5049575;28;20045;-58
2021/05/17 07:27:22;;;;;;;4.45;2.47;;;;;;;;;;5036013;28;20053;-59
2021/05/17 07:29:50;;;;;;;3.45;2.05;;;;;;;;;;5052653;28;20124;-59
2021/05/17 07:32:17;;;;;;;6.57;2.17;;;;;;;;;;5051444;28;20487;-58
2021/05/17 07:34:43;;;;;;;2.15;1.23;;;;;;;;;;5046741;28;20095;-59
2021/05/17 07:37:10;;;;;;;2.28;1.42;;;;;;;;;;5040158;28;20469;-59
2021/05/17 07:39:37;;;;;;;2.63;1.55;;;;;;;;;;5051784;28;20099;-59
2021/05/17 07:42:03;;;;;;;2.67;1.75;;;;;;;;;;5052683;28;20071;-59
2021/05/17 07:44:30;;;;;;;3.88;2.83;;;;;;;;;;5051755;28;20131;-59
2021/05/17 07:46:57;;;;;;;3.70;1.70;;;;;;;;;;5044135;28;20529;-59
2021/05/17 07:49:35;;;;;;;3.90;2.00;;;;;;;;;;5042532;28;20490;-59
2021/05/17 07:52:03;;;;;;;5.20;2.28;;;;;;;;;;5051302;28;20068;-59
2021/05/17 07:54:30;;;;;;;4.20;2.10;;;;;;;;;;5051983;28;24042;-59
2021/05/17 07:56:57;;;;;;;3.42;2.22;;;;;;;;;;5049256;28;20049;-59
2021/05/17 07:59:27;;;;;;;4.05;1.98;;;;;;;;;;5051278;28;20053;-59
2021/05/17 08:01:55;;;;;;;5.85;2.25;;;;;;;;;;5048868;28;20744;-59
2021/05/17 08:04:21;;;;;;;4.47;2.15;;;;;;;;;;5046288;28;20052;-59
2021/05/17 08:06:48;;;;;;;5.00;2.40;;;;;;;;;;5051603;28;20099;-60
2021/05/17 08:09:14;;;;;;;7.43;1.95;;;;;;;;;;5035358;28;20125;-59
2021/05/17 08:11:42;;;;;;;5.75;2.05;;;;;;;;;;5051723;28;20053;-59
2021/05/17 08:14:10;;;;;;;2.72;1.98;;;;;;;;;;5049546;28;20407;-59
2021/05/17 08:16:36;;;;;;;3.22;2.50;;;;;;;;;;5043941;28;20496;-59
2021/05/17 08:19:03;;;;;;;5.75;2.55;;;;;;;;;;5039771;28;20048;-59
2021/05/17 08:21:29;;;;;;;3.50;1.98;;;;;;;;;;5051104;28;20041;-58
2021/05/17 08:23:57;;;;;;;3.92;2.35;;;;;;;;;;5051999;28;20037;-59
2021/05/17 08:26:23;;;;;;;4.88;2.58;;;;;;;;;;5051305;28;20078;-59
2021/05/17 08:28:50;;;;;;;4.70;3.00;;;;;;;;;;5050956;28;20045;-59
2021/05/17 08:31:21;;;;;;;4.97;3.10;;;;;;;;;;5050738;28;20487;-58
2021/05/17 08:33:47;;;;;;;4.97;2.70;;;;;;;;;;5051218;28;20049;-59
2021/05/17 08:36:14;;;;;;;4.47;2.40;;;;;;;;;;5051143;28;20084;-59
2021/05/17 08:38:41;;;;;;;4.40;2.05;;;;;;;;;;5051998;28;20049;-59
2021/05/17 08:41:07;;;;;;;5.47;1.92;;;;;;;;;;5050852;28;20059;-59
2021/05/17 08:43:38;;;;;;;3.50;1.80;;;;;;;;;;5051010;28;20049;-59
2021/05/17 08:46:04;;;;;;;4.72;2.47;;;;;;;;;;5050630;28;20147;-59
2021/05/17 08:48:31;;;;;;;5.53;2.42;;;;;;;;;;5050689;28;20053;-59
2021/05/17 08:50:57;;;;;;;5.80;3.83;;;;;;;;;;5051633;28;20099;-59
2021/05/17 08:53:24;;;;;;;7.03;3.50;;;;;;;;;;5040074;28;20054;-59
2021/05/17 08:55:50;;;;;;;5.75;2.65;;;;;;;;;;5045547;28;20044;-59
2021/05/17 08:58:19;;;;;;;4.43;2.47;;;;;;;;;;5050596;28;20170;-59
2021/05/17 09:00:46;;;;;;;3.85;2.53;;;;;;;;;;5051230;28;20056;-59
2021/05/17 09:03:12;;;;;;;5.63;3.17;;;;;;;;;;5050875;28;20045;-59
2021/05/17 09:05:39;;;;;;;4.72;3.08;;;;;;;;;;5050146;28;20560;-60
2021/05/17 09:08:06;;;;;;;4.40;2.95;;;;;;;;;;5050786;28;20041;-59
2021/05/17 09:10:35;;;;;;;3.53;2.58;;;;;;;;;;5045969;28;20049;-59
2021/05/17 09:13:06;;;;;;;3.40;2.40;;;;;;;;;;5038852;28;20083;-60
2021/05/17 09:15:54;;;;;;;6.72;3.35;;;;;;;;;;5033929;28;20080;-58
2021/05/17 09:18:22;;;;;;;4.07;3.15;;;;;;;;;;5052786;28;20075;-58
2021/05/17 09:20:52;;;;;;;5.25;3.28;;;;;;;;;;5040527;28;20077;-59
2021/05/17 09:23:20;;;;;;;4.13;2.40;;;;;;;;;;5052571;28;20095;-59
2021/05/17 09:25:57;;;;;;;6.47;3.05;;;;;;;;;;5053869;28;20072;-59
2021/05/17 09:28:27;;;;;;;4.30;2.80;;;;;;;;;;5053856;28;20048;-57
2021/05/17 09:30:56;;;;;;;5.47;2.92;;;;;;;;;;5054082;28;20403;-59
2021/05/17 09:33:22;;;;;;;4.72;2.92;;;;;;;;;;5037784;28;20056;-58
2021/05/17 09:35:50;;;;;;;4.70;3.00;;;;;;;;;;5054794;28;20048;-59
2021/05/17 09:38:20;;;;;;;7.15;2.60;;;;;;;;;;5053553;28;20215;-58
2021/05/17 09:40:47;;;;;;;4.93;2.40;;;;;;;;;;5054233;28;20048;-59
2021/05/17 09:43:16;;;;;;;3.75;2.30;;;;;;;;;;5053211;28;20111;-60
2021/05/17 09:45:48;;;;;;;4.47;2.50;;;;;;;;;;5053983;28;20120;-60
2021/05/17 09:48:21;;;;;;;5.72;2.53;;;;;;;;;;5054263;28;20087;-59
2021/05/17 09:50:57;;;;;;;5.63;2.75;;;;;;;;;;5039615;28;20499;-60
2021/05/17 09:53:24;;;;;;;3.72;2.60;;;;;;;;;;5053218;28;20132;-59
2021/05/17 09:55:50;;;;;;;6.30;2.70;;;;;;;;;;5054026;28;20064;-58
2021/05/17 09:58:28;;;;;;;4.90;2.90;;;;;;;;;;5053577;28;20124;-58
2021/05/17 10:01:12;;;;;;;4.15;2.58;;;;;;;;;;5054066;28;20076;-58
2021/05/17 10:03:48;;;;;;;4.72;2.78;;;;;;;;;;5038656;28;20122;-58
2021/05/17 10:06:19;;;;;;;4.28;2.65;;;;;;;;;;5054100;28;20491;-59
2021/05/17 10:08:45;;;;;;;5.30;2.70;;;;;;;;;;5050100;28;20102;-58
2021/05/17 10:11:12;;;;;;;4.18;2.92;;;;;;;;;;5044545;28;20045;-59
2021/05/17 10:13:39;;;;;;;3.55;2.65;;;;;;;;;;5046642;28;20045;-58
2021/05/17 10:16:09;;;;;;;3.60;2.67;;;;;;;;;;5053772;28;20064;-59
2021/05/17 10:18:36;;;;;;;4.50;2.60;;;;;;;;;;5038043;28;20041;-58
2021/05/17 10:21:04;;;;;;;6.72;3.05;;;;;;;;;;5054528;28;20068;-58
2021/05/17 10:23:31;;;;;;;6.72;3.58;;;;;;;;;;5053504;28;20075;-59
2021/05/17 10:26:17;;;;;;;5.97;3.08;;;;;;;;;;5053136;28;20052;-58
2021/05/17 10:28:47;;;;;;;3.33;2.40;;;;;;;;;;5053402;28;20045;-58
2021/05/17 10:31:15;;;;;;;5.53;2.40;;;;;;;;;;5053261;28;20083;-59
2021/05/17 10:33:43;;;;;;;4.32;2.92;;;;;;;;;;5052899;28;20040;-58
2021/05/17 10:36:09;;;;;;;4.82;2.33;;;;;;;;;;5037420;28;20096;-59
2021/05/17 10:38:43;;;;;;;3.85;2.38;;;;;;;;;;5053713;28;20056;-60
2021/05/17 10:44:33;;;;;;;3.47;2.40;;;;;;;;;;5053204;28;20503;-60
2021/05/17 10:46:59;;;;;;;4.15;2.20;;;;;;;;;;5052910;28;20072;-59
2021/05/17 10:49:36;;;;;;;4.28;2.25;;;;;;;;;;5050239;28;20392;-60
2021/05/17 10:52:10;;;;;;;4.75;2.08;;;;;;;;;;5041189;28;20560;-60
2021/05/17 10:54:38;;;;;;;4.47;2.55;;;;;;;;;;5037329;28;20047;-58
2021/05/17 10:57:16;;;;;;;3.97;2.60;;;;;;;;;;5053251;28;20084;-58
2021/05/17 11:02:30;;;;;;;6.63;2.58;;;;;;;;;;5052610;28;20051;-59
2021/05/17 11:04:58;;;;;;;3.40;2.70;;;;;;;;;;5052646;28;20045;-59
2021/05/17 11:07:29;;;;;;;3.25;2.30;;;;;;;;;;5049159;28;20446;-59
2021/05/17 11:10:07;;;;;;;3.85;2.83;;;;;;;;;;5039459;28;20045;-59
2021/05/17 11:12:37;;;;;;;4.47;2.53;;;;;;;;;;5036681;28;20056;-58
2021/05/17 11:15:10;;;;;;;6.45;3.55;;;;;;;;;;5049420;28;20052;-59
2021/05/17 11:17:54;;;;;;;4.35;2.58;;;;;;;;;;5052060;28;20049;-58
2021/05/17 11:20:43;;;;;;;3.45;2.25;;;;;;;;;;5052315;28;20059;-59
2021/05/17 11:23:12;;;;;;;3.92;2.33;;;;;;;;;;5052057;28;20072;-58
2021/05/17 11:26:05;;;;;;;3.10;2.28;;;;;;;;;;5051836;28;20049;-58
2021/05/17 11:28:38;;;;;;;5.70;2.50;;;;;;;;;;5047680;28;20053;-59
2021/05/17 11:33:54;;;;;;;3.50;2.47;;;;;;;;;;5038872;28;20114;-58
2021/05/17 11:36:27;;;;;;;4.57;2.75;;;;;;;;;;5052073;28;20052;-58
2021/05/17 11:39:16;;;;;;;4.90;2.40;;;;;;;;;;5052154;28;20107;-59
2021/05/17 11:41:48;;;;;;;4.80;2.60;;;;;;;;;;5039402;28;20069;-59
2021/05/17 11:44:15;;;;;;;3.60;2.35;;;;;;;;;;5050099;28;20487;-59
2021/05/17 11:46:43;;;;;;;3.42;2.40;;;;;;;;;;5051785;28;20045;-59
2021/05/17 11:49:13;;;;;;;5.43;2.70;;;;;;;;;;5050324;28;20737;-59
2021/05/17 11:51:40;;;;;;;3.58;2.53;;;;;;;;;;5051789;28;20068;-58
2021/05/17 11:54:06;;;;;;;6.72;3.10;;;;;;;;;;5035791;28;20132;-58
2021/05/17 11:56:37;;;;;;;11.48;3.08;;;;;;;;;;5039994;28;20140;-59
2021/05/17 11:59:14;;;;;;;5.45;3.28;;;;;;;;;;5048234;28;20083;-59
2021/05/17 12:01:41;;;;;;;3.35;2.63;;;;;;;;;;5051696;28;20494;-58
2021/05/17 12:04:18;;;;;;;5.18;2.75;;;;;;;;;;5051746;28;20163;-58
2021/05/17 12:06:46;;;;;;;5.28;3.10;;;;;;;;;;5051810;28;20045;-59
2021/05/17 12:09:25;;;;;;;5.63;3.17;;;;;;;;;;5035732;28;20053;-58
2021/05/17 12:11:51;;;;;;;3.45;2.83;;;;;;;;;;5038154;28;20459;-60
2021/05/17 12:14:18;;;;;;;3.83;2.65;;;;;;;;;;5049791;28;20056;-58
2021/05/17 12:16:44;;;;;;;4.93;2.78;;;;;;;;;;5051505;28;20547;-59
2021/05/17 12:19:15;;;;;;;4.35;2.90;;;;;;;;;;5051404;28;20120;-58
2021/05/17 12:21:42;;;;;;;4.00;2.80;;;;;;;;;;5051287;28;20075;-58
2021/05/17 12:24:23;;;;;;;4.50;2.90;;;;;;;;;;5051891;28;20595;-58
2021/05/17 12:27:02;;;;;;;6.75;2.63;;;;;;;;;;5052271;28;20499;-58
2021/05/17 12:29:30;;;;;;;3.85;2.53;;;;;;;;;;5046878;28;20045;-59
2021/05/17 12:32:10;;;;;;;5.82;2.58;;;;;;;;;;5044525;28;20045;-59
2021/05/17 12:34:36;;;;;;;6.30;2.90;;;;;;;;;;5043873;28;20041;-58
2021/05/17 12:37:03;;;;;;;4.13;2.90;;;;;;;;;;5051292;28;20041;-58
2021/05/17 12:39:30;;;;;;;7.50;3.10;;;;;;;;;;5051258;28;20051;-58
2021/05/17 12:41:56;;;;;;;4.10;3.17;;;;;;;;;;5052151;28;20049;-57
2021/05/17 12:44:30;;;;;;;4.70;2.92;;;;;;;;;;5050939;28;20060;-58
2021/05/17 12:47:02;;;;;;;13.00;3.20;;;;;;;;;;5044632;28;20045;-59
2021/05/17 12:49:44;;;;;;;4.22;2.90;;;;;;;;;;5043782;28;20511;-58
2021/05/17 12:52:10;;;;;;;4.22;2.83;;;;;;;;;;5055033;28;20037;-59
2021/05/17 12:54:36;;;;;;;4.15;3.15;;;;;;;;;;5054982;28;20052;-58
2021/05/17 12:57:10;;;;;;;6.35;3.35;;;;;;;;;;5056060;28;20072;-58
2021/05/17 12:59:46;;;;;;;3.40;2.67;;;;;;;;;;5054666;28;20096;-59
2021/05/17 13:02:13;;;;;;;4.55;3.08;;;;;;;;;;5055010;28;20075;-58
2021/05/17 13:04:39;;;;;;;6.28;3.38;;;;;;;;;;5050354;28;20052;-58
2021/05/17 13:07:07;;;;;;;6.32;2.88;;;;;;;;;;5043457;28;20048;-59
2021/05/17 13:09:34;;;;;;;4.25;2.47;;;;;;;;;;5039118;28;20049;-59
2021/05/17 13:12:01;;;;;;;3.15;2.50;;;;;;;;;;5051286;28;20049;-58
2021/05/17 13:14:28;;;;;;;3.55;2.47;;;;;;;;;;5054521;28;20056;-58
2021/05/17 13:17:03;;;;;;;4.78;3.30;;;;;;;;;;5054766;28;20071;-58
2021/05/17 13:33:05;;;;;;;3.25;2.40;;;;;;;;;;5054864;28;20045;-58
2021/05/17 13:35:32;;;;;;;3.60;2.15;;;;;;;;;;5054639;28;20041;-59
2021/05/17 13:37:59;;;;;;;4.60;2.30;;;;;;;;;;5054409;28;20052;-58
2021/05/17 13:40:25;;;;;;;6.15;2.22;;;;;;;;;;5054107;28;20048;-59
2021/05/17 13:42:52;;;;;;;3.60;2.13;;;;;;;;;;5054372;28;20120;-59
2021/05/17 13:45:19;;;;;;;3.22;2.20;;;;;;;;;;5054424;28;20049;-58
2021/05/17 13:47:45;;;;;;;4.38;2.20;;;;;;;;;;5039420;28;20049;-58
2021/05/17 13:50:14;;;;;;;6.13;2.85;;;;;;;;;;5051492;28;20048;-58
2021/05/17 13:52:41;;;;;;;6.45;2.83;;;;;;;;;;5053835;28;20496;-59
2021/05/17 13:55:08;;;;;;;6.45;2.58;;;;;;;;;;5054038;28;20056;-59
2021/05/17 13:57:35;;;;;;;3.25;2.17;;;;;;;;;;5038607;28;20045;-58
2021/05/17 14:00:01;;;;;;;7.13;2.70;;;;;;;;;;5047603;28;20077;-59
2021/05/17 14:02:39;;;;;;;5.50;2.28;;;;;;;;;;5049546;28;20057;-59
2021/05/17 14:05:07;;;;;;;5.82;2.30;;;;;;;;;;5049307;28;20045;-59
2021/05/17 14:07:33;;;;;;;3.80;2.22;;;;;;;;;;5053872;28;20409;-59
2021/05/17 14:10:00;;;;;;;4.35;2.25;;;;;;;;;;5053876;28;20044;-58
2021/05/17 14:12:26;;;;;;;2.58;2.00;;;;;;;;;;5037480;28;20072;-58
2021/05/17 14:14:53;;;;;;;4.95;2.42;;;;;;;;;;5054506;28;20072;-58
2021/05/17 14:17:19;;;;;;;9.25;3.00;;;;;;;;;;5053283;28;20517;-59
2021/05/17 14:19:45;;;;;;;4.50;2.60;;;;;;;;;;5053629;28;20422;-58
2021/05/17 14:22:12;;;;;;;6.55;2.85;;;;;;;;;;5053505;28;20052;-57
2021/05/17 14:24:39;;;;;;;3.22;2.20;;;;;;;;;;5052467;28;20053;-58
2021/05/17 14:27:07;;;;;;;6.60;2.30;;;;;;;;;;5036792;28;20077;-58
2021/05/17 14:29:34;;;;;;;4.28;2.15;;;;;;;;;;5042877;28;20069;-58
2021/05/17 14:32:02;;;;;;;4.40;1.70;;;;;;;;;;5053026;28;20044;-58
2021/05/17 14:34:28;;;;;;;3.30;2.10;;;;;;;;;;5053132;28;20605;-59
2021/05/17 14:36:55;;;;;;;3.80;1.80;;;;;;;;;;5053322;28;20072;-58
2021/05/17 14:39:21;;;;;;;2.78;1.70;;;;;;;;;;5052917;28;20049;-58
2021/05/17 14:41:48;;;;;;;3.10;2.10;;;;;;;;;;5053973;28;20060;-59
2021/05/17 14:44:14;;;;;;;5.80;2.20;;;;;;;;;;5042533;28;20045;-57
2021/05/17 14:46:40;;;;;;;3.05;2.00;;;;;;;;;;5041548;28;20051;-58
2021/05/17 14:49:07;;;;;;;12.30;2.47;;;;;;;;;;5041677;28;20045;-58
2021/05/17 14:51:33;;;;;;;2.67;1.90;;;;;;;;;;5036019;28;20041;-58
2021/05/17 14:54:00;;;;;;;6.03;3.00;;;;;;;;;;5051298;28;20522;-58
2021/05/17 14:56:28;;;;;;;6.70;2.72;;;;;;;;;;5043747;28;20045;-59
2021/05/17 14:58:54;;;;;;;5.38;3.03;;;;;;;;;;5052105;28;20045;-58
2021/05/17 15:01:21;;;;;;;3.85;2.50;;;;;;;;;;5046713;28;20482;-58
2021/05/17 15:03:47;;;;;;;4.65;2.22;;;;;;;;;;5050064;28;20049;-58
2021/05/17 15:06:14;;;;;;;4.55;2.40;;;;;;;;;;5039340;28;20067;-58
2021/05/17 15:08:40;;;;;;;3.72;2.13;;;;;;;;;;5045753;28;20048;-58
2021/05/17 15:11:07;;;;;;;3.88;2.47;;;;;;;;;;5048854;28;20080;-58
2021/05/17 15:13:33;;;;;;;3.97;3.10;;;;;;;;;;5035729;28;20048;-59
2021/05/17 15:16:00;;;;;;;5.47;2.75;;;;;;;;;;5034570;28;20467;-58
2021/05/17 15:18:27;;;;;;;4.05;2.75;;;;;;;;;;5045665;28;20499;-58
2021/05/17 15:20:53;;;;;;;4.72;2.85;;;;;;;;;;5049798;28;20036;-58
2021/05/17 15:23:24;;;;;;;6.40;2.30;;;;;;;;;;5057032;28;20052;-58